Scottville, Michigan
Current Conditions -  °F | °C
As of 4:54 PM on Monday 22 Dec 2014 (Local Time) from KLDM Reporting Station
Haze Haze  
Wind Chill: 29°   Ceiling: 5000
Heat Index: 37°   Visibility: 4mi
Dew Point: 29°   Wind: 10mph
Humidity: 74%   Direction: 120°ESE
Pressure: 29.84"   Gusts: NA
Location:  43.95°N, 86.28°W
Report Text: KLDM 222154Z AUTO 12009KT 4SM HZ SCT027 BKN050 OVC070 03/M02 A2984 RMK AO2 T00261016
Loading
Personal Weather Stations






























Interactive Weather Map New forecast layout! Learn more

10-Day Weather Forecast

Advertisements
Track Severe Weather on mobile